Terminal Aerodrome Forecast
Issued by NWS Sterling, VA

Current Version | Previous Version | Graphics & Text | Print | Product List | Glossary On
Versions: 1 2 3 4 5 6 7 8 9 10 11 12 13 14 15 16 17
502
FTUS41 KLWX 231729
TAFMRB
TAF
KMRB 231729Z 2318/2418 23013KT P6SM BKN040
     FM240400 13006KT 5SM -SHRA OVC060
     FM240700 23004KT 2SM SHRA OVC030
     FM241200 27008KT P6SM BKN045
     FM241500 30012G19KT P6SM SCT050
     FM241700 30012G19KT P6SM SCT250=

USA.gov is the U.S. government's official web portal to all federal, state and local government web resources and services.